sensor_id;sensor_type;location;lat;lon;timestamp;temperature;humidity
47845;DHT22;33605;48.822;8.796;2023-04-01T00:02:03;12.00;52.70
47845;DHT22;33605;48.822;8.796;2023-04-01T00:04:29;12.00;52.80
47845;DHT22;33605;48.822;8.796;2023-04-01T00:06:54;12.00;52.70
47845;DHT22;33605;48.822;8.796;2023-04-01T00:09:20;12.00;52.90
47845;DHT22;33605;48.822;8.796;2023-04-01T00:11:46;12.10;52.80
47845;DHT22;33605;48.822;8.796;2023-04-01T00:14:12;12.10;52.70
47845;DHT22;33605;48.822;8.796;2023-04-01T00:16:38;12.10;52.80
47845;DHT22;33605;48.822;8.796;2023-04-01T00:19:03;12.10;52.90
47845;DHT22;33605;48.822;8.796;2023-04-01T00:21:29;12.10;52.80
47845;DHT22;33605;48.822;8.796;2023-04-01T00:23:55;12.10;52.50
47845;DHT22;33605;48.822;8.796;2023-04-01T00:26:21;12.10;52.50
47845;DHT22;33605;48.822;8.796;2023-04-01T00:28:47;12.10;52.30
47845;DHT22;33605;48.822;8.796;2023-04-01T00:31:13;12.10;52.10
47845;DHT22;33605;48.822;8.796;2023-04-01T00:33:40;12.10;52.00
47845;DHT22;33605;48.822;8.796;2023-04-01T00:36:18;12.10;51.60
47845;DHT22;33605;48.822;8.796;2023-04-01T00:38:44;12.10;51.80
47845;DHT22;33605;48.822;8.796;2023-04-01T00:41:12;12.10;52.10
47845;DHT22;33605;48.822;8.796;2023-04-01T00:43:40;12.10;52.20
47845;DHT22;33605;48.822;8.796;2023-04-01T00:46:06;12.10;52.20
47845;DHT22;33605;48.822;8.796;2023-04-01T00:48:39;12.10;52.10
47845;DHT22;33605;48.822;8.796;2023-04-01T00:51:16;12.10;52.20
47845;DHT22;33605;48.822;8.796;2023-04-01T00:53:45;12.10;52.40
47845;DHT22;33605;48.822;8.796;2023-04-01T00:56:16;12.10;52.30
47845;DHT22;33605;48.822;8.796;2023-04-01T00:58:46;12.10;52.40
47845;DHT22;33605;48.822;8.796;2023-04-01T01:01:12;12.10;52.40
47845;DHT22;33605;48.822;8.796;2023-04-01T01:03:38;12.10;52.50
47845;DHT22;33605;48.822;8.796;2023-04-01T01:06:10;12.10;52.50
47845;DHT22;33605;48.822;8.796;2023-04-01T01:08:46;12.10;52.20
47845;DHT22;33605;48.822;8.796;2023-04-01T01:11:15;12.10;52.10
47845;DHT22;33605;48.822;8.796;2023-04-01T01:13:57;12.10;51.90
47845;DHT22;33605;48.822;8.796;2023-04-01T01:16:28;12.10;51.80
47845;DHT22;33605;48.822;8.796;2023-04-01T01:19:10;12.10;51.80
47845;DHT22;33605;48.822;8.796;2023-04-01T01:21:49;12.10;51.80
47845;DHT22;33605;48.822;8.796;2023-04-01T01:35:54;12.20;51.60
47845;DHT22;33605;48.822;8.796;2023-04-01T01:38:05;12.20;51.80
47845;DHT22;33605;48.822;8.796;2023-04-01T01:40:34;12.10;51.90
47845;DHT22;33605;48.822;8.796;2023-04-01T01:43:08;12.10;52.10
47845;DHT22;33605;48.822;8.796;2023-04-01T01:45:36;12.10;52.30
47845;DHT22;33605;48.822;8.796;2023-04-01T01:48:05;12.10;52.50
47845;DHT22;33605;48.822;8.796;2023-04-01T01:50:33;12.10;52.50
47845;DHT22;33605;48.822;8.796;2023-04-01T01:53:11;12.10;52.60
47845;DHT22;33605;48.822;8.796;2023-04-01T01:55:40;12.10;52.50
47845;DHT22;33605;48.822;8.796;2023-04-01T02:00:43;12.00;52.10
47845;DHT22;33605;48.822;8.796;2023-04-01T02:03:12;12.00;52.00
47845;DHT22;33605;48.822;8.796;2023-04-01T02:05:39;12.10;51.70
47845;DHT22;33605;48.822;8.796;2023-04-01T02:08:12;12.00;51.40
47845;DHT22;33605;48.822;8.796;2023-04-01T02:10:46;12.00;51.00
47845;DHT22;33605;48.822;8.796;2023-04-01T02:13:18;12.00;51.00
47845;DHT22;33605;48.822;8.796;2023-04-01T02:15:48;12.00;50.90
47845;DHT22;33605;48.822;8.796;2023-04-01T02:18:17;12.00;50.80
47845;DHT22;33605;48.822;8.796;2023-04-01T02:20:44;12.00;50.70
47845;DHT22;33605;48.822;8.796;2023-04-01T02:23:10;12.00;50.70
47845;DHT22;33605;48.822;8.796;2023-04-01T02:25:37;11.90;50.70
47845;DHT22;33605;48.822;8.796;2023-04-01T02:28:06;11.90;50.70
47845;DHT22;33605;48.822;8.796;2023-04-01T02:30:35;11.90;50.90
47845;DHT22;33605;48.822;8.796;2023-04-01T02:33:02;11.90;51.10
47845;DHT22;33605;48.822;8.796;2023-04-01T02:35:29;11.90;51.30
47845;DHT22;33605;48.822;8.796;2023-04-01T02:37:54;11.90;51.40
47845;DHT22;33605;48.822;8.796;2023-04-01T02:40:21;11.90;51.50
47845;DHT22;33605;48.822;8.796;2023-04-01T02:42:46;11.80;52.20
47845;DHT22;33605;48.822;8.796;2023-04-01T02:45:13;11.80;51.80
47845;DHT22;33605;48.822;8.796;2023-04-01T02:47:40;11.80;51.90
47845;DHT22;33605;48.822;8.796;2023-04-01T02:50:06;11.80;51.90
47845;DHT22;33605;48.822;8.796;2023-04-01T02:52:32;11.80;51.80
47845;DHT22;33605;48.822;8.796;2023-04-01T02:54:57;11.80;51.80
47845;DHT22;33605;48.822;8.796;2023-04-01T02:57:24;11.80;51.90
47845;DHT22;33605;48.822;8.796;2023-04-01T02:59:50;11.80;52.40
47845;DHT22;33605;48.822;8.796;2023-04-01T03:02:16;11.70;52.40
47845;DHT22;33605;48.822;8.796;2023-04-01T03:04:42;11.70;52.70
47845;DHT22;33605;48.822;8.796;2023-04-01T03:07:08;11.70;53.00
47845;DHT22;33605;48.822;8.796;2023-04-01T03:09:36;11.60;53.30
47845;DHT22;33605;48.822;8.796;2023-04-01T03:12:02;11.60;53.60
47845;DHT22;33605;48.822;8.796;2023-04-01T03:14:27;11.60;53.70
47845;DHT22;33605;48.822;8.796;2023-04-01T03:16:53;11.60;53.80
47845;DHT22;33605;48.822;8.796;2023-04-01T03:19:19;11.60;54.10
47845;DHT22;33605;48.822;8.796;2023-04-01T03:21:44;11.50;54.00
47845;DHT22;33605;48.822;8.796;2023-04-01T03:24:10;11.50;54.00
47845;DHT22;33605;48.822;8.796;2023-04-01T03:26:36;11.50;54.30
47845;DHT22;33605;48.822;8.796;2023-04-01T03:29:01;11.50;54.40
47845;DHT22;33605;48.822;8.796;2023-04-01T03:31:27;11.50;54.30
47845;DHT22;33605;48.822;8.796;2023-04-01T03:33:53;11.40;54.30
47845;DHT22;33605;48.822;8.796;2023-04-01T03:36:18;11.40;54.40
47845;DHT22;33605;48.822;8.796;2023-04-01T03:38:44;11.40;54.40
47845;DHT22;33605;48.822;8.796;2023-04-01T03:41:15;11.40;54.30
47845;DHT22;33605;48.822;8.796;2023-04-01T03:43:41;11.40;54.20
47845;DHT22;33605;48.822;8.796;2023-04-01T03:46:07;11.40;54.30
47845;DHT22;33605;48.822;8.796;2023-04-01T03:48:32;11.30;54.10
47845;DHT22;33605;48.822;8.796;2023-04-01T03:50:58;11.40;54.20
47845;DHT22;33605;48.822;8.796;2023-04-01T03:53:23;11.30;54.50
47845;DHT22;33605;48.822;8.796;2023-04-01T03:55:49;11.20;53.70
47845;DHT22;33605;48.822;8.796;2023-04-01T03:58:16;11.30;53.80
47845;DHT22;33605;48.822;8.796;2023-04-01T04:00:42;11.30;53.80
47845;DHT22;33605;48.822;8.796;2023-04-01T04:03:08;11.20;53.60
47845;DHT22;33605;48.822;8.796;2023-04-01T04:05:34;11.20;53.70
47845;DHT22;33605;48.822;8.796;2023-04-01T04:08:00;11.20;53.70
47845;DHT22;33605;48.822;8.796;2023-04-01T04:10:25;11.20;53.70
47845;DHT22;33605;48.822;8.796;2023-04-01T04:12:52;11.20;53.70
47845;DHT22;33605;48.822;8.796;2023-04-01T04:15:17;11.30;53.90
47845;DHT22;33605;48.822;8.796;2023-04-01T04:17:45;11.20;53.70
47845;DHT22;33605;48.822;8.796;2023-04-01T04:20:10;11.10;53.40
47845;DHT22;33605;48.822;8.796;2023-04-01T04:22:36;11.10;53.60
47845;DHT22;33605;48.822;8.796;2023-04-01T04:25:02;11.20;53.90
47845;DHT22;33605;48.822;8.796;2023-04-01T04:27:28;11.10;53.80
47845;DHT22;33605;48.822;8.796;2023-04-01T04:29:53;11.10;53.90
47845;DHT22;33605;48.822;8.796;2023-04-01T04:32:19;11.10;54.00
47845;DHT22;33605;48.822;8.796;2023-04-01T04:34:47;11.10;54.20
47845;DHT22;33605;48.822;8.796;2023-04-01T04:37:13;11.00;54.10
47845;DHT22;33605;48.822;8.796;2023-04-01T04:39:38;11.00;54.20
47845;DHT22;33605;48.822;8.796;2023-04-01T04:42:05;11.10;54.30
47845;DHT22;33605;48.822;8.796;2023-04-01T04:44:31;11.10;54.10
47845;DHT22;33605;48.822;8.796;2023-04-01T04:46:56;11.10;54.10
47845;DHT22;33605;48.822;8.796;2023-04-01T04:49:22;11.10;54.00
47845;DHT22;33605;48.822;8.796;2023-04-01T04:51:48;11.10;54.30
47845;DHT22;33605;48.822;8.796;2023-04-01T04:54:13;11.10;54.40
47845;DHT22;33605;48.822;8.796;2023-04-01T04:56:39;11.00;54.30
47845;DHT22;33605;48.822;8.796;2023-04-01T04:59:05;11.10;54.40
47845;DHT22;33605;48.822;8.796;2023-04-01T05:01:31;11.10;54.40
47845;DHT22;33605;48.822;8.796;2023-04-01T05:03:58;11.10;54.30
47845;DHT22;33605;48.822;8.796;2023-04-01T05:06:24;11.10;54.30
47845;DHT22;33605;48.822;8.796;2023-04-01T05:08:51;11.10;54.20
47845;DHT22;33605;48.822;8.796;2023-04-01T05:11:18;11.10;54.30
47845;DHT22;33605;48.822;8.796;2023-04-01T05:13:44;11.10;54.40
47845;DHT22;33605;48.822;8.796;2023-04-01T05:16:12;11.10;54.40
47845;DHT22;33605;48.822;8.796;2023-04-01T05:18:38;11.00;54.30
47845;DHT22;33605;48.822;8.796;2023-04-01T05:21:06;11.00;54.20
47845;DHT22;33605;48.822;8.796;2023-04-01T05:23:32;11.10;54.80
47845;DHT22;33605;48.822;8.796;2023-04-01T05:25:58;11.10;54.80
47845;DHT22;33605;48.822;8.796;2023-04-01T05:28:24;11.10;54.90
47845;DHT22;33605;48.822;8.796;2023-04-01T05:30:50;11.10;54.60
47845;DHT22;33605;48.822;8.796;2023-04-01T05:33:15;11.10;54.80
47845;DHT22;33605;48.822;8.796;2023-04-01T05:35:41;11.10;54.70
47845;DHT22;33605;48.822;8.796;2023-04-01T05:38:07;11.10;54.80
47845;DHT22;33605;48.822;8.796;2023-04-01T05:40:33;11.10;54.70
47845;DHT22;33605;48.822;8.796;2023-04-01T05:42:59;11.10;54.50
47845;DHT22;33605;48.822;8.796;2023-04-01T05:45:26;11.10;54.30
47845;DHT22;33605;48.822;8.796;2023-04-01T05:47:52;11.20;54.40
47845;DHT22;33605;48.822;8.796;2023-04-01T05:50:18;11.20;54.40
47845;DHT22;33605;48.822;8.796;2023-04-01T05:52:44;11.20;54.20
47845;DHT22;33605;48.822;8.796;2023-04-01T05:55:10;11.30;54.00
47845;DHT22;33605;48.822;8.796;2023-04-01T05:57:36;11.30;54.00
47845;DHT22;33605;48.822;8.796;2023-04-01T06:00:03;11.30;54.00
47845;DHT22;33605;48.822;8.796;2023-04-01T06:02:29;11.30;54.50
47845;DHT22;33605;48.822;8.796;2023-04-01T06:05:08;11.30;53.90
47845;DHT22;33605;48.822;8.796;2023-04-01T06:07:36;11.30;54.10
47845;DHT22;33605;48.822;8.796;2023-04-01T06:10:11;11.30;54.20
47845;DHT22;33605;48.822;8.796;2023-04-01T06:15:23;11.30;54.20
47845;DHT22;33605;48.822;8.796;2023-04-01T06:30:31;11.40;55.30
47845;DHT22;33605;48.822;8.796;2023-04-01T06:33:30;11.40;55.60
47845;DHT22;33605;48.822;8.796;2023-04-01T06:48:06;11.40;56.40
47845;DHT22;33605;48.822;8.796;2023-04-01T06:50:47;11.40;56.40
47845;DHT22;33605;48.822;8.796;2023-04-01T06:56:15;11.40;56.70
47845;DHT22;33605;48.822;8.796;2023-04-01T06:58:43;11.30;56.90
47845;DHT22;33605;48.822;8.796;2023-04-01T07:01:17;11.30;57.00
47845;DHT22;33605;48.822;8.796;2023-04-01T07:03:55;11.30;57.10
47845;DHT22;33605;48.822;8.796;2023-04-01T07:06:36;11.20;57.00
47845;DHT22;33605;48.822;8.796;2023-04-01T07:09:09;11.30;57.20
47845;DHT22;33605;48.822;8.796;2023-04-01T07:11:37;11.20;57.30
47845;DHT22;33605;48.822;8.796;2023-04-01T07:14:29;11.20;57.20
47845;DHT22;33605;48.822;8.796;2023-04-01T07:17:08;11.20;57.50
47845;DHT22;33605;48.822;8.796;2023-04-01T07:22:40;11.20;57.70
47845;DHT22;33605;48.822;8.796;2023-04-01T07:25:15;11.20;57.80
47845;DHT22;33605;48.822;8.796;2023-04-01T07:27:43;11.20;58.10
47845;DHT22;33605;48.822;8.796;2023-04-01T07:30:20;11.20;58.50
47845;DHT22;33605;48.822;8.796;2023-04-01T07:33:21;11.10;58.60
47845;DHT22;33605;48.822;8.796;2023-04-01T07:35:54;11.10;58.90
47845;DHT22;33605;48.822;8.796;2023-04-01T07:41:38;11.10;59.30
47845;DHT22;33605;48.822;8.796;2023-04-01T07:44:38;11.10;59.50
47845;DHT22;33605;48.822;8.796;2023-04-01T07:49:49;11.20;60.00
47845;DHT22;33605;48.822;8.796;2023-04-01T07:52:22;11.20;60.00
47845;DHT22;33605;48.822;8.796;2023-04-01T07:55:18;11.20;59.70
47845;DHT22;33605;48.822;8.796;2023-04-01T08:00:28;11.20;59.20
47845;DHT22;33605;48.822;8.796;2023-04-01T08:03:16;11.20;59.00
47845;DHT22;33605;48.822;8.796;2023-04-01T08:06:00;11.20;59.60
47845;DHT22;33605;48.822;8.796;2023-04-01T08:16:23;11.30;60.00
47845;DHT22;33605;48.822;8.796;2023-04-01T08:21:52;11.20;59.80
47845;DHT22;33605;48.822;8.796;2023-04-01T08:24:42;11.30;60.20
47845;DHT22;33605;48.822;8.796;2023-04-01T08:27:37;11.30;60.10
47845;DHT22;33605;48.822;8.796;2023-04-01T08:32:58;11.30;60.10
47845;DHT22;33605;48.822;8.796;2023-04-01T08:35:39;11.30;60.10
47845;DHT22;33605;48.822;8.796;2023-04-01T08:38:18;11.30;60.00
47845;DHT22;33605;48.822;8.796;2023-04-01T08:41:01;11.30;60.30
47845;DHT22;33605;48.822;8.796;2023-04-01T08:43:44;11.30;60.30
47845;DHT22;33605;48.822;8.796;2023-04-01T08:49:02;11.20;60.20
47845;DHT22;33605;48.822;8.796;2023-04-01T08:52:12;11.20;60.50
47845;DHT22;33605;48.822;8.796;2023-04-01T09:02:30;11.30;60.30
47845;DHT22;33605;48.822;8.796;2023-04-01T09:11:33;11.40;60.50
47845;DHT22;33605;48.822;8.796;2023-04-01T09:16:45;11.50;60.70
47845;DHT22;33605;48.822;8.796;2023-04-01T09:25:23;11.60;59.10
47845;DHT22;33605;48.822;8.796;2023-04-01T09:28:02;11.60;59.70
47845;DHT22;33605;48.822;8.796;2023-04-01T09:36:31;11.70;59.40
47845;DHT22;33605;48.822;8.796;2023-04-01T09:39:24;11.70;59.90
47845;DHT22;33605;48.822;8.796;2023-04-01T09:42:15;11.70;59.30
47845;DHT22;33605;48.822;8.796;2023-04-01T09:50:49;11.80;59.20
47845;DHT22;33605;48.822;8.796;2023-04-01T09:53:25;11.80;59.20
47845;DHT22;33605;48.822;8.796;2023-04-01T17:49:19;12.70;55.60
47845;DHT22;33605;48.822;8.796;2023-04-01T17:52:02;12.70;55.70
47845;DHT22;33605;48.822;8.796;2023-04-01T17:55:15;12.60;55.70
47845;DHT22;33605;48.822;8.796;2023-04-01T17:57:46;12.50;55.60
47845;DHT22;33605;48.822;8.796;2023-04-01T18:03:12;12.40;55.80
47845;DHT22;33605;48.822;8.796;2023-04-01T18:05:47;12.40;56.00
47845;DHT22;33605;48.822;8.796;2023-04-01T18:13:51;12.30;56.20
47845;DHT22;33605;48.822;8.796;2023-04-01T18:18:57;12.20;56.40
47845;DHT22;33605;48.822;8.796;2023-04-01T18:21:36;12.20;56.50
47845;DHT22;33605;48.822;8.796;2023-04-01T18:26:47;12.10;56.60
47845;DHT22;33605;48.822;8.796;2023-04-01T18:29:39;12.10;56.60
47845;DHT22;33605;48.822;8.796;2023-04-01T18:35:24;12.00;56.60
47845;DHT22;33605;48.822;8.796;2023-04-01T18:40:34;11.80;56.60
47845;DHT22;33605;48.822;8.796;2023-04-01T18:43:38;11.80;56.60
47845;DHT22;33605;48.822;8.796;2023-04-01T18:46:30;11.70;56.70
47845;DHT22;33605;48.822;8.796;2023-04-01T18:51:56;11.60;56.60
47845;DHT22;33605;48.822;8.796;2023-04-01T18:54:30;11.60;56.90
47845;DHT22;33605;48.822;8.796;2023-04-01T18:57:03;11.50;56.80
47845;DHT22;33605;48.822;8.796;2023-04-01T19:02:36;11.50;57.30
47845;DHT22;33605;48.822;8.796;2023-04-01T19:05:12;11.50;57.40
47845;DHT22;33605;48.822;8.796;2023-04-01T19:26:37;11.40;58.10
47845;DHT22;33605;48.822;8.796;2023-04-01T19:37:27;11.30;58.40
47845;DHT22;33605;48.822;8.796;2023-04-01T19:52:26;11.30;58.80
47845;DHT22;33605;48.822;8.796;2023-04-01T19:57:38;11.40;59.20
47845;DHT22;33605;48.822;8.796;2023-04-01T20:03:05;11.40;59.20
47845;DHT22;33605;48.822;8.796;2023-04-01T20:05:35;11.40;59.30
47845;DHT22;33605;48.822;8.796;2023-04-01T20:08:14;11.40;59.30
47845;DHT22;33605;48.822;8.796;2023-04-01T20:15:47;11.50;59.40
47845;DHT22;33605;48.822;8.796;2023-04-01T20:18:27;11.50;59.40
47845;DHT22;33605;48.822;8.796;2023-04-01T20:21:03;11.50;59.40
47845;DHT22;33605;48.822;8.796;2023-04-01T20:23:33;11.60;59.40
47845;DHT22;33605;48.822;8.796;2023-04-01T20:26:13;11.50;59.30
47845;DHT22;33605;48.822;8.796;2023-04-01T20:29:12;11.50;59.30
47845;DHT22;33605;48.822;8.796;2023-04-01T20:31:44;11.60;59.20
47845;DHT22;33605;48.822;8.796;2023-04-01T20:37:10;11.50;59.20
47845;DHT22;33605;48.822;8.796;2023-04-01T20:42:57;11.50;59.10
47845;DHT22;33605;48.822;8.796;2023-04-01T20:45:42;11.50;59.10
47845;DHT22;33605;48.822;8.796;2023-04-01T20:53:40;11.50;58.90
47845;DHT22;33605;48.822;8.796;2023-04-01T21:07:49;11.50;59.00
47845;DHT22;33605;48.822;8.796;2023-04-01T21:13:41;11.50;58.60
47845;DHT22;33605;48.822;8.796;2023-04-01T21:17:03;11.50;58.40
47845;DHT22;33605;48.822;8.796;2023-04-01T21:33:41;11.40;57.50
47845;DHT22;33605;48.822;8.796;2023-04-01T21:50:41;11.40;57.30
47845;DHT22;33605;48.822;8.796;2023-04-01T22:01:41;11.40;57.60
47845;DHT22;33605;48.822;8.796;2023-04-01T22:04:30;11.40;57.60
47845;DHT22;33605;48.822;8.796;2023-04-01T22:09:49;11.50;57.80
47845;DHT22;33605;48.822;8.796;2023-04-01T22:12:35;11.40;57.60
47845;DHT22;33605;48.822;8.796;2023-04-01T22:20:27;11.50;57.60
47845;DHT22;33605;48.822;8.796;2023-04-01T22:22:59;11.50;57.60
47845;DHT22;33605;48.822;8.796;2023-04-01T22:28:27;11.60;57.60
47845;DHT22;33605;48.822;8.796;2023-04-01T22:31:00;11.60;57.60
47845;DHT22;33605;48.822;8.796;2023-04-01T22:39:48;11.60;57.60
47845;DHT22;33605;48.822;8.796;2023-04-01T22:42:39;11.50;57.40
47845;DHT22;33605;48.822;8.796;2023-04-01T22:45:29;11.50;57.30
47845;DHT22;33605;48.822;8.796;2023-04-01T22:56:20;11.50;57.30
47845;DHT22;33605;48.822;8.796;2023-04-01T23:01:38;11.40;57.30
47845;DHT22;33605;48.822;8.796;2023-04-01T23:04:11;11.40;57.30
47845;DHT22;33605;48.822;8.796;2023-04-01T23:06:42;11.40;57.40
47845;DHT22;33605;48.822;8.796;2023-04-01T23:09:14;11.40;57.40
47845;DHT22;33605;48.822;8.796;2023-04-01T23:11:57;11.40;57.40
47845;DHT22;33605;48.822;8.796;2023-04-01T23:14:43;11.40;57.50
47845;DHT22;33605;48.822;8.796;2023-04-01T23:17:24;11.40;57.50
47845;DHT22;33605;48.822;8.796;2023-04-01T23:22:42;11.40;57.40
47845;DHT22;33605;48.822;8.796;2023-04-01T23:25:15;11.40;57.40
47845;DHT22;33605;48.822;8.796;2023-04-01T23:27:47;11.40;57.40
47845;DHT22;33605;48.822;8.796;2023-04-01T23:33:27;11.40;57.60
47845;DHT22;33605;48.822;8.796;2023-04-01T23:35:58;11.40;57.70
47845;DHT22;33605;48.822;8.796;2023-04-01T23:38:38;11.50;57.80
47845;DHT22;33605;48.822;8.796;2023-04-01T23:41:29;11.40;57.80
47845;DHT22;33605;48.822;8.796;2023-04-01T23:44:10;11.50;58.00
47845;DHT22;33605;48.822;8.796;2023-04-01T23:46:39;11.40;57.90
47845;DHT22;33605;48.822;8.796;2023-04-01T23:49:09;11.50;57.90
47845;DHT22;33605;48.822;8.796;2023-04-01T23:51:39;11.50;57.80
47845;DHT22;33605;48.822;8.796;2023-04-01T23:54:38;11.50;57.70
47845;DHT22;33605;48.822;8.796;2023-04-01T23:57:12;11.50;57.80
47845;DHT22;33605;48.822;8.796;2023-04-01T23:59:38;11.50;57.80
